sensor_id;sensor_type;location;lat;lon;timestamp;pressure;altitude;pressure_sealevel;temperature;humidity
21824;BME280;11074;48.596;9.238;2023-08-31T00:00:51;97703.84;;;16.45;98.13
21824;BME280;11074;48.596;9.238;2023-08-31T00:03:17;97698.94;;;16.61;98.08
21824;BME280;11074;48.596;9.238;2023-08-31T00:05:43;97703.84;;;16.59;97.94
21824;BME280;11074;48.596;9.238;2023-08-31T00:08:10;97708.06;;;16.65;97.69
21824;BME280;11074;48.596;9.238;2023-08-31T00:10:37;97704.94;;;16.44;96.82
21824;BME280;11074;48.596;9.238;2023-08-31T00:13:04;97712.03;;;16.40;97.55
21824;BME280;11074;48.596;9.238;2023-08-31T00:15:32;97712.56;;;16.28;98.12
21824;BME280;11074;48.596;9.238;2023-08-31T00:18:01;97716.81;;;16.16;98.59
21824;BME280;11074;48.596;9.238;2023-08-31T00:20:30;97714.81;;;16.21;99.32
21824;BME280;11074;48.596;9.238;2023-08-31T00:22:56;97703.22;;;16.21;99.26
21824;BME280;11074;48.596;9.238;2023-08-31T00:25:21;97690.06;;;16.06;99.38
21824;BME280;11074;48.596;9.238;2023-08-31T00:27:47;97703.13;;;15.99;100.00
21824;BME280;11074;48.596;9.238;2023-08-31T00:30:14;97706.72;;;15.94;100.00
21824;BME280;11074;48.596;9.238;2023-08-31T00:32:41;97705.00;;;15.85;100.00
21824;BME280;11074;48.596;9.238;2023-08-31T00:35:09;97710.97;;;15.82;100.00
21824;BME280;11074;48.596;9.238;2023-08-31T00:37:35;97722.41;;;16.06;100.00
21824;BME280;11074;48.596;9.238;2023-08-31T00:40:01;97717.41;;;16.13;100.00
21824;BME280;11074;48.596;9.238;2023-08-31T00:42:30;97718.72;;;16.02;100.00
21824;BME280;11074;48.596;9.238;2023-08-31T00:44:56;97710.41;;;15.98;100.00
21824;BME280;11074;48.596;9.238;2023-08-31T00:47:21;97706.44;;;15.96;100.00
21824;BME280;11074;48.596;9.238;2023-08-31T00:49:48;97713.59;;;15.87;100.00
21824;BME280;11074;48.596;9.238;2023-08-31T00:52:15;97707.00;;;15.93;100.00
21824;BME280;11074;48.596;9.238;2023-08-31T00:54:41;97715.28;;;15.83;100.00
21824;BME280;11074;48.596;9.238;2023-08-31T00:57:08;97719.78;;;15.87;100.00
21824;BME280;11074;48.596;9.238;2023-08-31T00:59:34;97715.97;;;15.74;100.00
21824;BME280;11074;48.596;9.238;2023-08-31T01:02:24;97717.00;;;15.92;100.00
21824;BME280;11074;48.596;9.238;2023-08-31T01:05:37;97724.63;;;16.17;100.00
21824;BME280;11074;48.596;9.238;2023-08-31T01:13:59;97714.31;;;16.06;98.13
21824;BME280;11074;48.596;9.238;2023-08-31T01:16:32;97708.00;;;15.83;99.91
21824;BME280;11074;48.596;9.238;2023-08-31T01:19:01;97714.00;;;15.80;100.00
21824;BME280;11074;48.596;9.238;2023-08-31T01:21:42;97718.56;;;15.80;99.56
21824;BME280;11074;48.596;9.238;2023-08-31T01:24:09;97714.84;;;15.75;100.00
21824;BME280;11074;48.596;9.238;2023-08-31T01:26:35;97713.47;;;15.64;100.00
21824;BME280;11074;48.596;9.238;2023-08-31T01:29:02;97721.91;;;15.58;100.00
21824;BME280;11074;48.596;9.238;2023-08-31T01:31:28;97717.16;;;15.68;100.00
21824;BME280;11074;48.596;9.238;2023-08-31T01:33:54;97717.63;;;15.70;100.00
21824;BME280;11074;48.596;9.238;2023-08-31T01:36:33;97719.03;;;15.68;100.00
21824;BME280;11074;48.596;9.238;2023-08-31T01:42:00;97731.44;;;15.69;99.94
21824;BME280;11074;48.596;9.238;2023-08-31T01:44:30;97731.00;;;15.62;100.00
21824;BME280;11074;48.596;9.238;2023-08-31T01:47:04;97740.72;;;15.76;100.00
21824;BME280;11074;48.596;9.238;2023-08-31T01:49:39;97742.03;;;15.79;99.38
21824;BME280;11074;48.596;9.238;2023-08-31T01:52:06;97746.50;;;15.70;99.65
21824;BME280;11074;48.596;9.238;2023-08-31T01:54:33;97738.53;;;15.46;100.00
21824;BME280;11074;48.596;9.238;2023-08-31T01:56:59;97740.63;;;15.49;100.00
21824;BME280;11074;48.596;9.238;2023-08-31T01:59:25;97737.56;;;15.56;100.00
21824;BME280;11074;48.596;9.238;2023-08-31T02:01:50;97734.56;;;15.57;99.81
21824;BME280;11074;48.596;9.238;2023-08-31T02:04:17;97742.47;;;15.67;99.79
21824;BME280;11074;48.596;9.238;2023-08-31T02:06:42;97734.66;;;15.52;99.45
21824;BME280;11074;48.596;9.238;2023-08-31T02:09:08;97741.75;;;15.48;99.94
21824;BME280;11074;48.596;9.238;2023-08-31T02:11:34;97734.72;;;15.29;99.91
21824;BME280;11074;48.596;9.238;2023-08-31T02:14:04;97738.25;;;15.48;100.00
21824;BME280;11074;48.596;9.238;2023-08-31T02:16:30;97743.22;;;15.36;100.00
21824;BME280;11074;48.596;9.238;2023-08-31T02:18:57;97743.38;;;15.44;100.00
21824;BME280;11074;48.596;9.238;2023-08-31T02:21:23;97744.69;;;15.28;100.00
21824;BME280;11074;48.596;9.238;2023-08-31T02:23:48;97742.66;;;15.57;100.00
21824;BME280;11074;48.596;9.238;2023-08-31T02:26:14;97756.09;;;15.76;100.00
21824;BME280;11074;48.596;9.238;2023-08-31T02:28:40;97762.59;;;15.75;99.47
21824;BME280;11074;48.596;9.238;2023-08-31T02:31:05;97766.28;;;15.79;99.25
21824;BME280;11074;48.596;9.238;2023-08-31T02:33:31;97761.91;;;15.83;99.30
21824;BME280;11074;48.596;9.238;2023-08-31T02:35:57;97763.63;;;15.93;98.24
21824;BME280;11074;48.596;9.238;2023-08-31T02:38:23;97758.34;;;15.88;97.61
21824;BME280;11074;48.596;9.238;2023-08-31T02:40:49;97747.38;;;15.65;97.91
21824;BME280;11074;48.596;9.238;2023-08-31T02:43:15;97748.97;;;15.66;98.34
21824;BME280;11074;48.596;9.238;2023-08-31T02:45:41;97756.25;;;15.66;98.39
21824;BME280;11074;48.596;9.238;2023-08-31T02:48:07;97762.09;;;15.54;98.65
21824;BME280;11074;48.596;9.238;2023-08-31T02:50:36;97770.91;;;15.60;100.00
21824;BME280;11074;48.596;9.238;2023-08-31T02:53:03;97767.28;;;15.51;99.02
21824;BME280;11074;48.596;9.238;2023-08-31T02:55:32;97763.72;;;15.55;100.00
21824;BME280;11074;48.596;9.238;2023-08-31T02:57:57;97766.19;;;15.52;98.89
21824;BME280;11074;48.596;9.238;2023-08-31T03:00:23;97767.72;;;15.58;98.59
21824;BME280;11074;48.596;9.238;2023-08-31T03:02:49;97769.09;;;15.55;98.93
21824;BME280;11074;48.596;9.238;2023-08-31T03:05:18;97769.41;;;15.54;100.00
21824;BME280;11074;48.596;9.238;2023-08-31T03:07:43;97772.34;;;15.71;98.62
21824;BME280;11074;48.596;9.238;2023-08-31T03:10:09;97778.50;;;15.58;98.24
21824;BME280;11074;48.596;9.238;2023-08-31T03:12:36;97780.00;;;15.45;99.57
21824;BME280;11074;48.596;9.238;2023-08-31T03:15:02;97766.91;;;15.39;99.49
21824;BME280;11074;48.596;9.238;2023-08-31T03:17:28;97769.41;;;15.54;98.90
21824;BME280;11074;48.596;9.238;2023-08-31T03:19:53;97776.44;;;15.31;98.27
21824;BME280;11074;48.596;9.238;2023-08-31T03:22:19;97777.84;;;15.47;100.00
21824;BME280;11074;48.596;9.238;2023-08-31T03:24:45;97769.81;;;15.42;99.69
21824;BME280;11074;48.596;9.238;2023-08-31T03:27:10;97770.72;;;15.56;98.32
21824;BME280;11074;48.596;9.238;2023-08-31T03:29:36;97768.06;;;15.70;98.10
21824;BME280;11074;48.596;9.238;2023-08-31T03:32:02;97771.53;;;15.70;97.61
21824;BME280;11074;48.596;9.238;2023-08-31T03:34:31;97766.47;;;15.69;97.30
21824;BME280;11074;48.596;9.238;2023-08-31T03:36:58;97766.38;;;15.74;98.21
21824;BME280;11074;48.596;9.238;2023-08-31T03:39:25;97780.28;;;15.62;97.63
21824;BME280;11074;48.596;9.238;2023-08-31T03:41:51;97772.25;;;15.76;97.35
21824;BME280;11074;48.596;9.238;2023-08-31T03:44:17;97774.97;;;15.76;97.42
21824;BME280;11074;48.596;9.238;2023-08-31T03:46:43;97787.56;;;15.81;95.81
21824;BME280;11074;48.596;9.238;2023-08-31T03:49:09;97789.66;;;15.84;96.68
21824;BME280;11074;48.596;9.238;2023-08-31T03:51:35;97789.31;;;15.71;96.73
21824;BME280;11074;48.596;9.238;2023-08-31T03:54:01;97790.63;;;15.74;98.32
21824;BME280;11074;48.596;9.238;2023-08-31T03:56:26;97785.69;;;15.62;98.27
21824;BME280;11074;48.596;9.238;2023-08-31T03:58:53;97793.00;;;15.62;97.84
21824;BME280;11074;48.596;9.238;2023-08-31T04:01:19;97796.28;;;15.59;98.69
21824;BME280;11074;48.596;9.238;2023-08-31T04:03:45;97789.19;;;15.63;97.82
21824;BME280;11074;48.596;9.238;2023-08-31T04:06:10;97805.09;;;15.64;98.15
21824;BME280;11074;48.596;9.238;2023-08-31T04:08:36;97799.97;;;15.63;97.22
21824;BME280;11074;48.596;9.238;2023-08-31T04:11:02;97807.91;;;15.54;97.61
21824;BME280;11074;48.596;9.238;2023-08-31T04:13:28;97800.22;;;15.48;98.04
21824;BME280;11074;48.596;9.238;2023-08-31T04:15:54;97797.19;;;15.68;98.67
21824;BME280;11074;48.596;9.238;2023-08-31T04:18:21;97798.84;;;15.83;98.53
21824;BME280;11074;48.596;9.238;2023-08-31T04:20:51;97806.09;;;15.68;96.13
21824;BME280;11074;48.596;9.238;2023-08-31T04:23:19;97802.00;;;15.71;97.05
21824;BME280;11074;48.596;9.238;2023-08-31T04:25:46;97810.63;;;15.87;97.39
21824;BME280;11074;48.596;9.238;2023-08-31T04:28:13;97806.31;;;15.72;97.29
21824;BME280;11074;48.596;9.238;2023-08-31T04:30:41;97808.50;;;15.51;97.70
21824;BME280;11074;48.596;9.238;2023-08-31T04:33:07;97821.09;;;15.56;98.13
21824;BME280;11074;48.596;9.238;2023-08-31T04:35:34;97820.28;;;15.55;98.27
21824;BME280;11074;48.596;9.238;2023-08-31T04:38:00;97816.66;;;15.46;97.68
21824;BME280;11074;48.596;9.238;2023-08-31T04:40:28;97821.81;;;15.43;98.54
21824;BME280;11074;48.596;9.238;2023-08-31T04:42:55;97811.53;;;15.45;98.29
21824;BME280;11074;48.596;9.238;2023-08-31T04:45:20;97810.31;;;15.56;97.57
21824;BME280;11074;48.596;9.238;2023-08-31T04:47:46;97817.19;;;15.48;97.40
21824;BME280;11074;48.596;9.238;2023-08-31T04:50:12;97816.69;;;15.41;97.06
21824;BME280;11074;48.596;9.238;2023-08-31T04:52:37;97819.56;;;15.50;97.31
21824;BME280;11074;48.596;9.238;2023-08-31T04:55:06;97825.47;;;15.52;97.58
21824;BME280;11074;48.596;9.238;2023-08-31T04:57:35;97815.63;;;15.42;97.28
21824;BME280;11074;48.596;9.238;2023-08-31T05:00:00;97825.97;;;15.35;98.09
21824;BME280;11074;48.596;9.238;2023-08-31T05:02:27;97827.13;;;15.29;97.56
21824;BME280;11074;48.596;9.238;2023-08-31T05:04:53;97832.41;;;15.15;98.79
21824;BME280;11074;48.596;9.238;2023-08-31T05:07:19;97837.28;;;15.13;99.09
21824;BME280;11074;48.596;9.238;2023-08-31T05:09:45;97839.00;;;15.04;100.00
21824;BME280;11074;48.596;9.238;2023-08-31T05:12:10;97851.84;;;15.12;100.00
21824;BME280;11074;48.596;9.238;2023-08-31T05:14:36;97849.88;;;15.18;99.91
21824;BME280;11074;48.596;9.238;2023-08-31T05:17:03;97851.03;;;15.12;99.90
21824;BME280;11074;48.596;9.238;2023-08-31T05:19:30;97845.78;;;15.02;100.00
21824;BME280;11074;48.596;9.238;2023-08-31T05:21:56;97845.78;;;15.02;100.00
21824;BME280;11074;48.596;9.238;2023-08-31T05:24:22;97859.56;;;15.19;100.00
21824;BME280;11074;48.596;9.238;2023-08-31T05:26:49;97855.13;;;15.28;100.00
21824;BME280;11074;48.596;9.238;2023-08-31T05:29:15;97859.38;;;15.34;100.00
21824;BME280;11074;48.596;9.238;2023-08-31T05:31:41;97855.94;;;15.29;100.00
21824;BME280;11074;48.596;9.238;2023-08-31T05:34:06;97850.47;;;15.34;99.75
21824;BME280;11074;48.596;9.238;2023-08-31T05:36:32;97866.44;;;15.30;100.00
21824;BME280;11074;48.596;9.238;2023-08-31T05:38:58;97861.47;;;15.37;99.06
21824;BME280;11074;48.596;9.238;2023-08-31T05:41:23;97859.88;;;15.36;98.72
21824;BME280;11074;48.596;9.238;2023-08-31T05:43:50;97865.03;;;15.56;98.87
21824;BME280;11074;48.596;9.238;2023-08-31T05:46:16;97865.88;;;15.52;98.46
21824;BME280;11074;48.596;9.238;2023-08-31T05:48:41;97857.88;;;15.47;98.73
21824;BME280;11074;48.596;9.238;2023-08-31T05:51:08;97879.19;;;15.43;98.57
21824;BME280;11074;48.596;9.238;2023-08-31T05:53:34;97878.16;;;15.39;98.49
21824;BME280;11074;48.596;9.238;2023-08-31T05:56:00;97873.88;;;15.57;98.99
21824;BME280;11074;48.596;9.238;2023-08-31T05:58:38;97883.97;;;15.51;99.39
21824;BME280;11074;48.596;9.238;2023-08-31T06:01:05;97882.09;;;15.47;99.37
21824;BME280;11074;48.596;9.238;2023-08-31T06:03:31;97889.63;;;15.50;100.00
21824;BME280;11074;48.596;9.238;2023-08-31T06:05:58;97893.69;;;15.47;100.00
21824;BME280;11074;48.596;9.238;2023-08-31T06:08:24;97884.22;;;15.50;100.00
21824;BME280;11074;48.596;9.238;2023-08-31T06:10:51;97900.56;;;15.58;99.83
21824;BME280;11074;48.596;9.238;2023-08-31T06:13:17;97904.25;;;15.62;99.18
21824;BME280;11074;48.596;9.238;2023-08-31T06:15:43;97900.06;;;15.75;97.86
21824;BME280;11074;48.596;9.238;2023-08-31T06:18:10;97902.69;;;15.80;97.92
21824;BME280;11074;48.596;9.238;2023-08-31T06:20:36;97903.91;;;15.88;98.08
21824;BME280;11074;48.596;9.238;2023-08-31T06:23:02;97903.19;;;15.82;97.27
21824;BME280;11074;48.596;9.238;2023-08-31T06:25:28;97911.50;;;15.86;97.90
21824;BME280;11074;48.596;9.238;2023-08-31T06:27:54;97911.25;;;15.82;98.17
21824;BME280;11074;48.596;9.238;2023-08-31T06:30:20;97908.91;;;15.94;97.57
21824;BME280;11074;48.596;9.238;2023-08-31T06:32:47;97909.66;;;15.81;97.26
21824;BME280;11074;48.596;9.238;2023-08-31T06:35:14;97922.03;;;15.82;97.17
21824;BME280;11074;48.596;9.238;2023-08-31T06:37:42;97918.84;;;15.80;98.04
21824;BME280;11074;48.596;9.238;2023-08-31T06:40:10;97911.50;;;15.86;99.15
21824;BME280;11074;48.596;9.238;2023-08-31T06:42:36;97915.50;;;15.88;99.00
21824;BME280;11074;48.596;9.238;2023-08-31T06:45:08;97919.59;;;15.86;99.05
21824;BME280;11074;48.596;9.238;2023-08-31T06:47:34;97923.75;;;15.78;99.50
21824;BME280;11074;48.596;9.238;2023-08-31T06:50:00;97925.16;;;15.89;99.31
21824;BME280;11074;48.596;9.238;2023-08-31T06:52:26;97929.41;;;15.95;98.78
21824;BME280;11074;48.596;9.238;2023-08-31T06:54:52;97928.31;;;15.96;99.21
21824;BME280;11074;48.596;9.238;2023-08-31T06:57:24;97943.69;;;15.96;98.90
21824;BME280;11074;48.596;9.238;2023-08-31T06:59:50;97927.13;;;15.84;98.51
21824;BME280;11074;48.596;9.238;2023-08-31T07:02:16;97939.91;;;15.97;98.29
21824;BME280;11074;48.596;9.238;2023-08-31T07:04:42;97944.78;;;15.95;98.60
21824;BME280;11074;48.596;9.238;2023-08-31T07:07:08;97940.13;;;16.00;98.05
21824;BME280;11074;48.596;9.238;2023-08-31T07:09:38;97940.56;;;16.07;97.83
21824;BME280;11074;48.596;9.238;2023-08-31T07:12:04;97945.56;;;16.14;97.81
21824;BME280;11074;48.596;9.238;2023-08-31T07:14:30;97945.50;;;16.19;96.47
21824;BME280;11074;48.596;9.238;2023-08-31T07:16:56;97950.47;;;16.12;96.72
21824;BME280;11074;48.596;9.238;2023-08-31T07:19:21;97943.75;;;16.09;96.66
21824;BME280;11074;48.596;9.238;2023-08-31T07:21:47;97955.19;;;16.20;97.20
21824;BME280;11074;48.596;9.238;2023-08-31T07:24:13;97942.53;;;16.34;96.07
21824;BME280;11074;48.596;9.238;2023-08-31T07:26:39;97957.44;;;16.31;95.13
21824;BME280;11074;48.596;9.238;2023-08-31T07:29:04;97957.47;;;16.45;94.91
21824;BME280;11074;48.596;9.238;2023-08-31T07:31:31;97957.94;;;16.52;93.98
21824;BME280;11074;48.596;9.238;2023-08-31T07:33:57;97960.00;;;16.42;94.54
21824;BME280;11074;48.596;9.238;2023-08-31T07:36:24;97967.19;;;16.46;94.18
21824;BME280;11074;48.596;9.238;2023-08-31T07:38:49;97973.59;;;16.50;94.19
21824;BME280;11074;48.596;9.238;2023-08-31T07:41:15;97967.41;;;16.68;93.52
21824;BME280;11074;48.596;9.238;2023-08-31T07:43:41;97972.81;;;16.82;93.01
21824;BME280;11074;48.596;9.238;2023-08-31T07:46:06;97981.13;;;16.85;91.81
21824;BME280;11074;48.596;9.238;2023-08-31T07:48:32;97978.09;;;16.73;92.27
21824;BME280;11074;48.596;9.238;2023-08-31T07:50:58;97991.16;;;16.66;92.55
21824;BME280;11074;48.596;9.238;2023-08-31T07:53:23;97987.00;;;16.74;92.83
21824;BME280;11074;48.596;9.238;2023-08-31T07:55:55;97983.81;;;16.85;90.29
21824;BME280;11074;48.596;9.238;2023-08-31T07:58:24;97986.25;;;16.87;90.39
21824;BME280;11074;48.596;9.238;2023-08-31T08:00:56;97988.25;;;16.95;89.65
21824;BME280;11074;48.596;9.238;2023-08-31T08:03:22;97975.66;;;17.04;89.66
21824;BME280;11074;48.596;9.238;2023-08-31T08:05:49;97985.66;;;17.04;90.26
21824;BME280;11074;48.596;9.238;2023-08-31T08:08:14;97979.97;;;17.05;88.90
21824;BME280;11074;48.596;9.238;2023-08-31T08:10:40;97972.06;;;17.09;88.80
21824;BME280;11074;48.596;9.238;2023-08-31T08:13:06;97974.38;;;17.15;89.03
21824;BME280;11074;48.596;9.238;2023-08-31T08:15:32;97966.38;;;17.24;88.91
21824;BME280;11074;48.596;9.238;2023-08-31T08:17:58;97973.78;;;17.18;85.73
21824;BME280;11074;48.596;9.238;2023-08-31T08:20:24;97977.47;;;17.36;86.19
21824;BME280;11074;48.596;9.238;2023-08-31T08:22:50;97987.19;;;17.37;84.15
21824;BME280;11074;48.596;9.238;2023-08-31T08:25:20;97980.59;;;17.56;84.94
21824;BME280;11074;48.596;9.238;2023-08-31T08:27:46;97983.00;;;17.72;84.27
21824;BME280;11074;48.596;9.238;2023-08-31T08:30:13;97983.72;;;17.64;82.75
21824;BME280;11074;48.596;9.238;2023-08-31T08:32:39;97987.63;;;17.71;82.31
21824;BME280;11074;48.596;9.238;2023-08-31T08:35:05;97987.50;;;17.76;79.34
21824;BME280;11074;48.596;9.238;2023-08-31T08:37:31;97988.53;;;17.80;77.79
21824;BME280;11074;48.596;9.238;2023-08-31T08:40:01;97989.16;;;17.99;81.69
21824;BME280;11074;48.596;9.238;2023-08-31T08:42:30;97980.69;;;17.79;72.75
21824;BME280;11074;48.596;9.238;2023-08-31T08:44:57;97979.06;;;17.91;76.42
21824;BME280;11074;48.596;9.238;2023-08-31T08:47:25;97993.00;;;17.98;68.79
21824;BME280;11074;48.596;9.238;2023-08-31T08:49:53;97989.97;;;18.00;72.02
21824;BME280;11074;48.596;9.238;2023-08-31T08:52:21;97989.09;;;17.91;70.10
21824;BME280;11074;48.596;9.238;2023-08-31T08:54:49;97980.53;;;18.11;75.76
21824;BME280;11074;48.596;9.238;2023-08-31T08:57:15;97986.88;;;18.29;76.38
21824;BME280;11074;48.596;9.238;2023-08-31T08:59:41;97988.97;;;18.32;75.94
21824;BME280;11074;48.596;9.238;2023-08-31T09:02:10;97992.50;;;18.32;71.60
21824;BME280;11074;48.596;9.238;2023-08-31T09:04:36;98009.09;;;18.39;74.18
21824;BME280;11074;48.596;9.238;2023-08-31T09:07:02;97999.19;;;18.48;71.95
21824;BME280;11074;48.596;9.238;2023-08-31T09:09:28;98001.78;;;18.40;73.47
21824;BME280;11074;48.596;9.238;2023-08-31T09:11:54;97998.09;;;18.36;67.98
21824;BME280;11074;48.596;9.238;2023-08-31T09:14:21;98009.94;;;18.62;73.05
21824;BME280;11074;48.596;9.238;2023-08-31T09:16:50;98020.28;;;18.82;71.85
21824;BME280;11074;48.596;9.238;2023-08-31T09:19:25;98015.28;;;18.53;65.94
21824;BME280;11074;48.596;9.238;2023-08-31T09:21:56;98024.97;;;18.68;72.55
21824;BME280;11074;48.596;9.238;2023-08-31T09:24:23;98026.75;;;18.72;71.01
21824;BME280;11074;48.596;9.238;2023-08-31T09:26:58;98018.75;;;18.67;71.47
21824;BME280;11074;48.596;9.238;2023-08-31T09:29:25;98018.19;;;18.79;71.12
21824;BME280;11074;48.596;9.238;2023-08-31T09:31:50;98020.31;;;18.60;66.55
21824;BME280;11074;48.596;9.238;2023-08-31T09:34:18;98028.78;;;18.67;71.81
21824;BME280;11074;48.596;9.238;2023-08-31T09:36:44;98021.63;;;18.71;70.95
21824;BME280;11074;48.596;9.238;2023-08-31T09:39:10;98031.69;;;18.70;66.06
21824;BME280;11074;48.596;9.238;2023-08-31T09:41:55;98023.38;;;18.67;65.79
21824;BME280;11074;48.596;9.238;2023-08-31T09:44:22;98017.03;;;18.94;69.67
21824;BME280;11074;48.596;9.238;2023-08-31T09:46:48;98022.50;;;19.02;69.90
21824;BME280;11074;48.596;9.238;2023-08-31T09:49:15;98013.63;;;19.19;67.47
21824;BME280;11074;48.596;9.238;2023-08-31T09:51:48;98026.75;;;19.25;69.00
21824;BME280;11074;48.596;9.238;2023-08-31T09:54:19;98034.91;;;19.03;62.27
21824;BME280;11074;48.596;9.238;2023-08-31T09:56:48;98027.50;;;19.17;64.88
21824;BME280;11074;48.596;9.238;2023-08-31T09:59:15;98036.06;;;19.11;58.59
21824;BME280;11074;48.596;9.238;2023-08-31T10:01:45;98033.56;;;19.14;60.36
21824;BME280;11074;48.596;9.238;2023-08-31T10:04:11;98012.78;;;19.32;62.54
21824;BME280;11074;48.596;9.238;2023-08-31T10:06:42;98031.25;;;19.30;57.59
21824;BME280;11074;48.596;9.238;2023-08-31T10:09:08;98030.56;;;19.24;57.73
21824;BME280;11074;48.596;9.238;2023-08-31T10:11:41;98018.97;;;19.32;61.17
21824;BME280;11074;48.596;9.238;2023-08-31T10:14:11;98015.16;;;19.33;56.89
21824;BME280;11074;48.596;9.238;2023-08-31T10:16:40;98023.53;;;19.46;61.45
21824;BME280;11074;48.596;9.238;2023-08-31T10:19:06;98022.09;;;19.48;60.46
21824;BME280;11074;48.596;9.238;2023-08-31T10:21:32;98037.13;;;19.54;63.24
21824;BME280;11074;48.596;9.238;2023-08-31T10:23:59;98025.31;;;19.50;63.88
21824;BME280;11074;48.596;9.238;2023-08-31T10:26:30;98039.34;;;19.52;56.25
21824;BME280;11074;48.596;9.238;2023-08-31T10:28:58;98029.13;;;19.49;55.76
21824;BME280;11074;48.596;9.238;2023-08-31T10:31:29;98039.97;;;19.49;60.15
21824;BME280;11074;48.596;9.238;2023-08-31T10:33:56;98030.59;;;19.55;58.12
21824;BME280;11074;48.596;9.238;2023-08-31T10:36:46;98030.97;;;19.71;59.56
21824;BME280;11074;48.596;9.238;2023-08-31T10:39:18;98039.88;;;19.63;56.47
21824;BME280;11074;48.596;9.238;2023-08-31T10:41:57;98032.88;;;19.70;60.48
21824;BME280;11074;48.596;9.238;2023-08-31T10:44:32;98033.50;;;19.67;53.62
21824;BME280;11074;48.596;9.238;2023-08-31T10:47:03;98025.56;;;19.79;59.28
21824;BME280;11074;48.596;9.238;2023-08-31T10:49:30;98024.28;;;19.77;60.74
21824;BME280;11074;48.596;9.238;2023-08-31T10:52:17;98033.25;;;19.86;60.29
21824;BME280;11074;48.596;9.238;2023-08-31T10:54:43;98027.31;;;19.75;54.15
21824;BME280;11074;48.596;9.238;2023-08-31T10:57:09;98025.09;;;19.86;60.29
21824;BME280;11074;48.596;9.238;2023-08-31T10:59:52;98021.28;;;19.87;51.97
21824;BME280;11074;48.596;9.238;2023-08-31T11:02:35;98022.06;;;19.79;53.78
21824;BME280;11074;48.596;9.238;2023-08-31T11:05:15;98029.25;;;19.83;59.88
21824;BME280;11074;48.596;9.238;2023-08-31T11:12:42;98029.22;;;19.75;53.40
21824;BME280;11074;48.596;9.238;2023-08-31T11:15:12;98019.66;;;19.77;53.25
21824;BME280;11074;48.596;9.238;2023-08-31T11:17:40;98019.81;;;19.81;54.63
21824;BME280;11074;48.596;9.238;2023-08-31T11:20:08;98028.03;;;19.98;60.34
21824;BME280;11074;48.596;9.238;2023-08-31T11:22:40;98019.06;;;19.98;57.14
21824;BME280;11074;48.596;9.238;2023-08-31T11:25:08;98028.81;;;20.07;58.81
21824;BME280;11074;48.596;9.238;2023-08-31T11:27:34;98013.66;;;20.15;57.18
21824;BME280;11074;48.596;9.238;2023-08-31T11:30:00;98019.41;;;20.13;59.80
21824;BME280;11074;48.596;9.238;2023-08-31T11:32:26;98025.63;;;20.05;57.10
21824;BME280;11074;48.596;9.238;2023-08-31T11:34:52;98025.28;;;19.89;57.48
21824;BME280;11074;48.596;9.238;2023-08-31T11:37:18;98025.72;;;19.74;52.03
21824;BME280;11074;48.596;9.238;2023-08-31T11:39:53;98011.88;;;19.84;57.56
21824;BME280;11074;48.596;9.238;2023-08-31T11:42:21;98015.09;;;20.04;59.68
21824;BME280;11074;48.596;9.238;2023-08-31T11:44:49;98017.00;;;20.03;51.58
21824;BME280;11074;48.596;9.238;2023-08-31T11:47:16;98014.81;;;20.22;58.04
21824;BME280;11074;48.596;9.238;2023-08-31T11:49:42;98013.97;;;20.05;51.55
21824;BME280;11074;48.596;9.238;2023-08-31T11:52:13;98001.53;;;20.21;56.85
21824;BME280;11074;48.596;9.238;2023-08-31T11:54:42;98011.63;;;20.29;55.40
21824;BME280;11074;48.596;9.238;2023-08-31T11:57:09;98019.09;;;20.23;54.98
21824;BME280;11074;48.596;9.238;2023-08-31T11:59:38;98015.16;;;20.29;58.18
21824;BME280;11074;48.596;9.238;2023-08-31T12:02:08;98009.69;;;20.21;56.39
21824;BME280;11074;48.596;9.238;2023-08-31T12:04:45;98014.63;;;20.10;53.36
21824;BME280;11074;48.596;9.238;2023-08-31T12:07:12;98017.63;;;20.00;53.67
21824;BME280;11074;48.596;9.238;2023-08-31T12:09:41;98023.56;;;20.11;55.50
21824;BME280;11074;48.596;9.238;2023-08-31T12:12:10;98004.91;;;20.09;58.37
21824;BME280;11074;48.596;9.238;2023-08-31T12:14:38;98010.94;;;20.06;57.66
21824;BME280;11074;48.596;9.238;2023-08-31T12:17:08;98014.44;;;19.98;55.69
21824;BME280;11074;48.596;9.238;2023-08-31T12:19:37;98010.31;;;20.09;54.22
21824;BME280;11074;48.596;9.238;2023-08-31T12:22:05;98015.41;;;20.02;58.28
21824;BME280;11074;48.596;9.238;2023-08-31T12:24:40;98007.59;;;20.18;51.26
21824;BME280;11074;48.596;9.238;2023-08-31T12:27:07;97998.53;;;20.39;52.94
21824;BME280;11074;48.596;9.238;2023-08-31T12:29:33;97990.41;;;20.57;54.79
21824;BME280;11074;48.596;9.238;2023-08-31T12:31:58;97989.88;;;20.80;52.66
21824;BME280;11074;48.596;9.238;2023-08-31T12:34:24;97993.25;;;20.86;52.67
21824;BME280;11074;48.596;9.238;2023-08-31T12:36:50;97993.09;;;20.74;55.36
21824;BME280;11074;48.596;9.238;2023-08-31T12:39:15;97998.53;;;20.57;56.40
21824;BME280;11074;48.596;9.238;2023-08-31T12:41:41;97993.13;;;20.48;51.07
21824;BME280;11074;48.596;9.238;2023-08-31T12:44:07;97981.91;;;20.49;52.97
21824;BME280;11074;48.596;9.238;2023-08-31T12:46:33;97979.19;;;20.75;52.47
21824;BME280;11074;48.596;9.238;2023-08-31T12:49:00;97978.03;;;20.93;51.74
21824;BME280;11074;48.596;9.238;2023-08-31T12:51:28;97978.00;;;21.02;55.42
21824;BME280;11074;48.596;9.238;2023-08-31T12:53:54;97978.97;;;20.97;55.08
21824;BME280;11074;48.596;9.238;2023-08-31T12:56:19;97983.94;;;20.95;54.22
21824;BME280;11074;48.596;9.238;2023-08-31T12:58:50;97974.34;;;20.89;49.91
21824;BME280;11074;48.596;9.238;2023-08-31T13:01:16;97979.63;;;20.94;52.84
21824;BME280;11074;48.596;9.238;2023-08-31T13:03:42;97984.91;;;20.99;54.72
21824;BME280;11074;48.596;9.238;2023-08-31T13:06:08;97984.38;;;21.06;55.15
21824;BME280;11074;48.596;9.238;2023-08-31T13:08:33;97984.69;;;21.22;55.05
21824;BME280;11074;48.596;9.238;2023-08-31T13:11:00;97978.94;;;21.23;54.75
21824;BME280;11074;48.596;9.238;2023-08-31T13:13:26;97979.50;;;21.37;52.63